createdAt,value
2024-05-09T00:00:35.501Z,102227.56
2024-05-09T00:03:07.748Z,102227.88
2024-05-09T00:05:34.741Z,102224.44
2024-05-09T00:08:01.528Z,102224.38
2024-05-09T00:10:35.382Z,102223.09
2024-05-09T00:13:04.798Z,102214.78
2024-05-09T00:15:31.530Z,102213.63
2024-05-09T00:17:58.257Z,102207.91
2024-05-09T00:20:33.060Z,102215.63
2024-05-09T00:23:06.664Z,102208.97
2024-05-09T00:25:33.369Z,102218.16
2024-05-09T00:27:59.877Z,102214.84
2024-05-09T00:30:33.442Z,102213.03
2024-05-09T00:33:02.774Z,102214.28
2024-05-09T00:35:29.654Z,102214.81
2024-05-09T00:37:56.308Z,102208.50
2024-05-09T00:40:31.005Z,102207.59
2024-05-09T00:43:05.640Z,102204.72
2024-05-09T00:45:32.259Z,102203.28
2024-05-09T00:48:02.561Z,102209.06
2024-05-09T00:50:35.797Z,102204.25
2024-05-09T00:53:05.781Z,102207.25
2024-05-09T00:55:32.470Z,102205.56
2024-05-09T00:57:59.091Z,102209.69
2024-05-09T01:00:31.820Z,102213.00
2024-05-09T01:03:05.647Z,102204.09
2024-05-09T01:05:32.650Z,102203.00
2024-05-09T01:07:59.304Z,102206.94
2024-05-09T01:10:33.528Z,102215.50
2024-05-09T01:13:02.601Z,102214.13
2024-05-09T01:15:29.122Z,102222.53
2024-05-09T01:17:56.275Z,102211.81
2024-05-09T01:20:32.085Z,102207.06
2024-05-09T01:23:07.502Z,102200.31
2024-05-09T01:25:34.180Z,102207.00
2024-05-09T01:28:00.774Z,102205.41
2024-05-09T01:30:33.993Z,102206.22
2024-05-09T01:33:03.596Z,102199.81
2024-05-09T01:35:30.481Z,102195.44
2024-05-09T01:37:57.102Z,102192.78
2024-05-09T01:40:33.317Z,102198.00
2024-05-09T01:43:04.510Z,102195.59
2024-05-09T01:45:31.084Z,102194.34
2024-05-09T01:47:57.761Z,102190.84
2024-05-09T01:50:35.837Z,102185.47
2024-05-09T01:53:05.720Z,102180.03
2024-05-09T01:55:32.515Z,102186.94
2024-05-09T01:57:59.016Z,102185.31
2024-05-09T02:00:36.818Z,102197.47
2024-05-09T02:03:15.169Z,102199.09
2024-05-09T02:05:45.230Z,102198.13
2024-05-09T02:08:16.994Z,102180.56
2024-05-09T02:10:44.778Z,102191.00
2024-05-09T02:13:11.882Z,102189.13
2024-05-09T02:15:38.437Z,102194.47
2024-05-09T02:18:05.642Z,102178.81
2024-05-09T02:20:36.266Z,102187.63
2024-05-09T02:23:05.136Z,102184.69
2024-05-09T02:25:32.431Z,102189.19
2024-05-09T02:27:59.343Z,102191.72
2024-05-09T02:30:35.808Z,102187.97
2024-05-09T02:33:07.148Z,102190.78
2024-05-09T02:35:34.127Z,102183.13
2024-05-09T02:38:00.869Z,102181.91
2024-05-09T02:40:35.698Z,102188.47
2024-05-09T02:43:05.020Z,102183.84
2024-05-09T02:45:31.618Z,102198.56
2024-05-09T02:47:58.521Z,102184.81
2024-05-09T02:50:33.653Z,102193.53
2024-05-09T02:53:05.038Z,102184.50
2024-05-09T02:55:31.696Z,102185.69
2024-05-09T02:57:58.188Z,102188.59
2024-05-09T03:00:34.191Z,102180.31
2024-05-09T03:03:06.459Z,102187.75
2024-05-09T03:05:33.447Z,102185.16
2024-05-09T03:08:00.144Z,102190.59
2024-05-09T03:10:29.102Z,102175.72
2024-05-09T03:13:05.703Z,102180.06
2024-05-09T03:15:33.033Z,102177.31
2024-05-09T03:18:00.883Z,102170.06
2024-05-09T03:20:33.216Z,102175.19
2024-05-09T03:23:02.213Z,102174.34
2024-05-09T03:25:28.826Z,102186.38
2024-05-09T03:27:55.501Z,102184.63
2024-05-09T03:30:31.086Z,102182.56
2024-05-09T03:33:13.882Z,102189.88
2024-05-09T03:35:41.683Z,102172.97
2024-05-09T03:38:08.499Z,102182.06
2024-05-09T03:40:35.345Z,102167.63
2024-05-09T03:43:01.886Z,102177.22
2024-05-09T03:45:28.354Z,102180.41
2024-05-09T03:47:55.120Z,102182.09
2024-05-09T03:50:29.905Z,102166.56
2024-05-09T03:53:01.274Z,102178.44
2024-05-09T03:55:28.566Z,102183.09
2024-05-09T03:57:55.120Z,102178.84
2024-05-09T04:00:30.792Z,102165.63
2024-05-09T04:03:04.122Z,102175.31
2024-05-09T04:05:31.204Z,102171.91
2024-05-09T04:07:58.405Z,102187.25
2024-05-09T04:10:32.380Z,102176.19
2024-05-09T04:13:00.558Z,102182.88
2024-05-09T04:15:27.076Z,102168.16
2024-05-09T04:17:53.778Z,102188.91
2024-05-09T04:20:29.373Z,102186.25
2024-05-09T04:23:04.278Z,102190.13
2024-05-09T04:25:32.148Z,102187.81
2024-05-09T04:27:58.644Z,102186.38
2024-05-09T04:30:34.563Z,102192.56
2024-05-09T04:33:05.878Z,102194.41
2024-05-09T04:35:32.721Z,102194.13
2024-05-09T04:37:59.298Z,102194.41
2024-05-09T04:40:33.015Z,102197.56
2024-05-09T04:43:02.229Z,102204.75
2024-05-09T04:45:28.691Z,102191.34
2024-05-09T04:47:55.486Z,102200.13
2024-05-09T04:50:30.125Z,102197.06
2024-05-09T04:53:03.465Z,102200.81
2024-05-09T04:55:30.069Z,102203.75
2024-05-09T04:57:56.566Z,102194.75
2024-05-09T05:00:32.323Z,102203.84
2024-05-09T05:03:06.813Z,102200.47
2024-05-09T05:05:34.433Z,102200.97
2024-05-09T05:08:01.179Z,102201.31
2024-05-09T05:10:33.834Z,102188.44
2024-05-09T05:13:23.051Z,102210.56
2024-05-09T05:15:56.939Z,102208.84
2024-05-09T05:18:26.189Z,102209.22
2024-05-09T05:20:53.077Z,102199.84
2024-05-09T05:23:21.087Z,102203.38
2024-05-09T05:25:49.266Z,102210.78
2024-05-09T05:28:16.664Z,102213.22
2024-05-09T05:30:43.324Z,102211.03
2024-05-09T05:33:11.622Z,102212.75
2024-05-09T05:35:39.016Z,102208.69
2024-05-09T05:38:09.539Z,102206.28
2024-05-09T05:40:38.453Z,102221.00
2024-05-09T05:43:10.359Z,102220.28
2024-05-09T05:45:37.425Z,102220.47
2024-05-09T05:48:05.692Z,102223.63
2024-05-09T05:50:36.376Z,102213.09
2024-05-09T05:53:08.946Z,102223.91
2024-05-09T05:55:40.590Z,102223.00
2024-05-09T05:58:11.078Z,102235.50
2024-05-09T06:00:39.885Z,102221.44
2024-05-09T06:03:08.847Z,102223.88
2024-05-09T06:05:36.859Z,102234.94
2024-05-09T06:08:03.708Z,102230.69
2024-05-09T06:10:37.623Z,102227.34
2024-05-09T06:13:07.431Z,102238.41
2024-05-09T06:15:34.127Z,102229.69
2024-05-09T06:18:00.911Z,102229.75
2024-05-09T06:20:35.227Z,102228.19
2024-05-09T06:23:05.248Z,102218.38
2024-05-09T06:25:32.043Z,102223.25
2024-05-09T06:28:00.049Z,102221.63
2024-05-09T06:30:35.283Z,102223.56
2024-05-09T06:33:06.698Z,102220.63
2024-05-09T06:35:33.830Z,102228.81
2024-05-09T06:38:00.647Z,102230.09
2024-05-09T06:40:36.162Z,102229.53
2024-05-09T06:43:05.335Z,102225.91
2024-05-09T06:45:31.835Z,102214.59
2024-05-09T06:47:58.525Z,102225.91
2024-05-09T06:50:28.359Z,102218.50
2024-05-09T06:52:58.315Z,102232.84
2024-05-09T06:55:24.928Z,102239.63
2024-05-09T06:57:51.478Z,102229.03
2024-05-09T07:00:26.863Z,102227.78
2024-05-09T07:02:58.999Z,102226.50
2024-05-09T07:05:26.840Z,102231.03
2024-05-09T07:07:53.540Z,102236.06
2024-05-09T07:10:28.456Z,102231.13
2024-05-09T07:12:59.268Z,102231.84
2024-05-09T07:15:25.794Z,102219.56
2024-05-09T07:17:52.618Z,102229.03
2024-05-09T07:20:27.598Z,102232.59
2024-05-09T07:23:00.615Z,102230.63
2024-05-09T07:25:27.138Z,102225.41
2024-05-09T07:27:53.617Z,102222.81
2024-05-09T07:30:27.620Z,102225.38
2024-05-09T07:32:59.773Z,102232.72
2024-05-09T07:35:26.783Z,102225.66
2024-05-09T07:37:53.561Z,102218.31
2024-05-09T07:40:28.396Z,102216.47
2024-05-09T07:43:03.250Z,102224.53
2024-05-09T07:45:45.844Z,102217.28
2024-05-09T07:53:38.366Z,102226.69
2024-05-09T07:56:06.313Z,102231.38
2024-05-09T07:58:33.019Z,102224.81
2024-05-09T08:00:59.813Z,102233.53
2024-05-09T08:03:26.519Z,102231.13
2024-05-09T08:05:54.321Z,102224.53
2024-05-09T08:08:20.932Z,102217.13
2024-05-09T08:10:47.498Z,102221.78
2024-05-09T08:13:14.208Z,102216.34
2024-05-09T08:15:40.894Z,102220.69
2024-05-09T08:18:08.979Z,102220.56
2024-05-09T08:20:39.334Z,102209.25
2024-05-09T08:23:06.135Z,102210.09
2024-05-09T08:25:32.996Z,102215.88
2024-05-09T08:27:59.699Z,102200.53
2024-05-09T08:30:33.394Z,102206.84
2024-05-09T08:33:03.930Z,102202.38
2024-05-09T08:35:30.583Z,102203.44
2024-05-09T08:37:57.307Z,102211.16
2024-05-09T08:40:30.911Z,102201.19
2024-05-09T08:43:03.075Z,102201.03
2024-05-09T08:45:33.225Z,102197.66
2024-05-09T08:48:01.280Z,102193.09
2024-05-09T08:50:35.885Z,102191.16
2024-05-09T08:53:05.482Z,102205.13
2024-05-09T08:55:32.553Z,102207.19
2024-05-09T08:58:03.444Z,102198.31
2024-05-09T09:00:36.782Z,102201.69
2024-05-09T09:03:08.976Z,102200.75
2024-05-09T09:05:38.713Z,102192.84
2024-05-09T09:08:07.625Z,102196.16
2024-05-09T09:10:35.198Z,102192.72
2024-05-09T09:13:04.261Z,102184.03
2024-05-09T09:15:31.120Z,102177.91
2024-05-09T09:18:01.724Z,102183.38
2024-05-09T09:20:35.790Z,102173.47
2024-05-09T09:23:04.513Z,102171.38
2024-05-09T09:25:31.453Z,102176.94
2024-05-09T09:27:58.535Z,102171.75
2024-05-09T09:30:35.136Z,102163.09
2024-05-09T09:33:04.890Z,102174.69
2024-05-09T09:35:31.668Z,102164.16
2024-05-09T09:38:05.675Z,102169.59
2024-05-09T09:40:40.998Z,102165.66
2024-05-09T09:43:18.562Z,102169.25
2024-05-09T09:45:49.558Z,102162.28
2024-05-09T09:48:16.847Z,102163.41
2024-05-09T09:50:43.983Z,102157.94
2024-05-09T09:53:12.589Z,102155.16
2024-05-09T09:55:40.197Z,102147.88
2024-05-09T09:58:09.548Z,102154.72
2024-05-09T10:00:38.481Z,102138.34
2024-05-09T10:03:05.319Z,102140.69
2024-05-09T10:05:33.514Z,102141.16
2024-05-09T10:08:05.703Z,102134.88
2024-05-09T10:10:34.459Z,102140.06
2024-05-09T10:13:05.182Z,102133.59
2024-05-09T10:15:45.820Z,102131.94
2024-05-09T10:18:12.909Z,102131.69
2024-05-09T10:20:44.323Z,102127.44
2024-05-09T10:23:23.587Z,102132.59
2024-05-09T10:26:06.293Z,102130.22
2024-05-09T10:28:35.021Z,102129.13
2024-05-09T10:31:08.560Z,102115.09
2024-05-09T10:33:52.616Z,102119.47
2024-05-09T10:36:23.568Z,102110.31
2024-05-09T10:38:51.497Z,102104.97
2024-05-09T10:41:19.745Z,102106.38
2024-05-09T10:43:47.381Z,102101.00
2024-05-09T10:46:18.791Z,102105.09
2024-05-09T10:48:45.649Z,102099.34
2024-05-09T10:51:13.558Z,102101.66
2024-05-09T10:53:48.989Z,102092.25
2024-05-09T10:56:16.528Z,102094.09
2024-05-09T10:58:43.224Z,102089.47
2024-05-09T11:01:10.394Z,102085.66
2024-05-09T11:03:38.150Z,102088.31
2024-05-09T11:06:06.241Z,102078.50
2024-05-09T11:08:33.952Z,102061.75
2024-05-09T11:11:02.764Z,102075.19
2024-05-09T11:13:34.467Z,102067.38
2024-05-09T11:16:02.245Z,102080.47
2024-05-09T11:18:34.680Z,102061.38
2024-05-09T11:21:03.566Z,102065.56
2024-05-09T11:23:30.697Z,102065.44
2024-05-09T11:25:58.820Z,102073.41
2024-05-09T11:28:28.404Z,102063.78
2024-05-09T11:31:09.469Z,102063.09
2024-05-09T11:33:41.076Z,102045.56
2024-05-09T11:36:08.645Z,102053.88
2024-05-09T11:38:35.353Z,102050.06
2024-05-09T11:41:03.214Z,102046.59
2024-05-09T11:43:29.918Z,102045.16
2024-05-09T11:45:57.584Z,102035.75
2024-05-09T11:48:25.478Z,102035.97
2024-05-09T11:50:52.288Z,102026.84
2024-05-09T11:53:18.779Z,102017.31
2024-05-09T11:55:45.310Z,102014.31
2024-05-09T11:58:13.725Z,102014.34
2024-05-09T12:00:40.351Z,102022.75
2024-05-09T12:03:06.942Z,102019.97
2024-05-09T12:05:34.519Z,102016.03
2024-05-09T12:08:01.838Z,102013.22
2024-05-09T12:12:58.223Z,102012.53
2024-05-09T12:15:24.762Z,102007.84
2024-05-09T12:17:51.376Z,102002.53
2024-05-09T12:20:25.799Z,101992.44
2024-05-09T12:22:59.563Z,102000.38
2024-05-09T12:25:26.124Z,101999.38
2024-05-09T12:27:53.017Z,101993.94
2024-05-09T12:30:32.175Z,101988.16
2024-05-09T12:33:04.083Z,101986.16
2024-05-09T12:35:30.783Z,101982.00
2024-05-09T12:37:57.318Z,101978.03
2024-05-09T12:40:34.018Z,101978.31
2024-05-09T12:43:03.905Z,101979.03
2024-05-09T12:45:30.612Z,101969.97
2024-05-09T12:47:57.382Z,101969.41
2024-05-09T12:50:31.050Z,101968.59
2024-05-09T12:52:59.537Z,101963.66
2024-05-09T12:55:27.036Z,101965.72
2024-05-09T12:57:54.672Z,101960.97
2024-05-09T13:00:28.119Z,101961.13
2024-05-09T13:03:00.288Z,101955.13
2024-05-09T13:05:27.182Z,101956.09
2024-05-09T13:07:53.931Z,101953.94
2024-05-09T13:10:28.963Z,101957.47
2024-05-09T13:12:59.278Z,101956.28
2024-05-09T13:15:25.921Z,101940.41
2024-05-09T13:17:52.557Z,101947.38
2024-05-09T13:20:26.408Z,101943.22
2024-05-09T13:23:01.378Z,101937.00
2024-05-09T13:25:27.882Z,101937.44
2024-05-09T13:27:54.856Z,101927.56
2024-05-09T13:30:29.282Z,101927.56
2024-05-09T13:33:04.857Z,101925.91
2024-05-09T13:35:32.097Z,101937.72
2024-05-09T13:38:00.676Z,101922.97
2024-05-09T13:40:33.091Z,101920.75
2024-05-09T13:43:02.650Z,101923.53
2024-05-09T13:45:29.383Z,101920.22
2024-05-09T13:47:56.515Z,101922.81
2024-05-09T13:50:31.290Z,101919.50
2024-05-09T13:53:02.034Z,101916.00
2024-05-09T13:55:28.687Z,101909.75
2024-05-09T13:57:55.648Z,101908.91
2024-05-09T14:00:37.668Z,101912.91
2024-05-09T14:03:09.026Z,101904.09
2024-05-09T14:05:35.775Z,101896.13
2024-05-09T14:08:02.990Z,101895.00
2024-05-09T14:10:31.679Z,101886.91
2024-05-09T14:12:59.072Z,101886.66
2024-05-09T14:15:25.669Z,101887.72
2024-05-09T14:17:52.386Z,101877.22
2024-05-09T14:20:28.519Z,101868.81
2024-05-09T14:22:58.421Z,101865.63
2024-05-09T14:25:26.331Z,101864.69
2024-05-09T14:27:53.278Z,101882.13
2024-05-09T14:30:29.581Z,101866.91
2024-05-09T14:33:01.298Z,101871.94
2024-05-09T14:35:28.358Z,101867.88
2024-05-09T14:37:55.000Z,101858.13
2024-05-09T14:40:35.728Z,101848.03
2024-05-09T14:43:07.759Z,101859.53
2024-05-09T14:45:34.637Z,101848.94
2024-05-09T14:48:01.650Z,101854.16
2024-05-09T14:50:35.146Z,101851.00
2024-05-09T14:53:06.220Z,101851.69
2024-05-09T14:55:35.750Z,101853.97
2024-05-09T14:58:03.231Z,101848.66
2024-05-09T15:00:35.572Z,101849.47
2024-05-09T15:03:03.698Z,101833.06
2024-05-09T15:05:30.518Z,101845.66
2024-05-09T15:07:57.533Z,101847.28
2024-05-09T15:10:33.160Z,101849.06
2024-05-09T15:13:02.170Z,101834.41
2024-05-09T15:15:28.708Z,101832.53
2024-05-09T15:17:55.761Z,101823.06
2024-05-09T15:20:31.013Z,101830.09
2024-05-09T15:23:01.807Z,101819.53
2024-05-09T15:25:28.448Z,101814.25
2024-05-09T15:27:55.187Z,101814.78
2024-05-09T15:30:29.932Z,101807.69
2024-05-09T15:32:59.015Z,101812.59
2024-05-09T15:35:25.533Z,101817.09
2024-05-09T15:37:52.104Z,101807.22
2024-05-09T15:40:26.583Z,101796.97
2024-05-09T15:43:02.350Z,101798.41
2024-05-09T15:45:29.293Z,101798.41
2024-05-09T15:47:57.129Z,101791.75
2024-05-09T15:50:35.126Z,101801.06
2024-05-09T15:53:06.031Z,101790.38
2024-05-09T15:55:34.203Z,101793.72
2024-05-09T15:58:02.011Z,101783.56
2024-05-09T16:00:36.639Z,101784.19
2024-05-09T16:03:06.922Z,101773.41
2024-05-09T16:05:33.815Z,101785.19
2024-05-09T16:08:00.625Z,101783.72
2024-05-09T16:10:32.419Z,101781.44
2024-05-09T16:13:00.643Z,101783.31
2024-05-09T16:15:27.257Z,101773.78
2024-05-09T16:17:56.620Z,101778.06
2024-05-09T16:22:52.830Z,101783.72
2024-05-09T16:25:19.411Z,101774.31
2024-05-09T16:27:46.147Z,101773.66
2024-05-09T16:30:20.959Z,101780.34
2024-05-09T16:32:53.955Z,101765.06
2024-05-09T16:35:20.482Z,101776.34
2024-05-09T16:37:47.752Z,101776.09
2024-05-09T16:40:22.147Z,101766.13
2024-05-09T16:42:56.634Z,101766.13
2024-05-09T16:45:23.313Z,101768.03
2024-05-09T16:47:50.353Z,101756.91
2024-05-09T16:50:25.651Z,101758.38
2024-05-09T16:52:55.337Z,101756.94
2024-05-09T16:55:21.946Z,101756.09
2024-05-09T16:57:48.638Z,101755.22
2024-05-09T17:00:22.677Z,101761.94
2024-05-09T17:02:57.960Z,101762.56
2024-05-09T17:05:24.744Z,101761.53
2024-05-09T17:07:51.632Z,101763.88
2024-05-09T17:10:26.563Z,101762.69
2024-05-09T17:12:58.663Z,101763.47
2024-05-09T17:15:25.704Z,101753.81
2024-05-09T17:17:52.383Z,101761.97
2024-05-09T17:20:29.281Z,101760.84
2024-05-09T17:23:00.231Z,101755.91
2024-05-09T17:25:26.817Z,101762.25
2024-05-09T17:27:53.779Z,101756.34
2024-05-09T17:30:28.759Z,101760.72
2024-05-09T17:33:01.132Z,101761.81
2024-05-09T17:35:27.761Z,101755.22
2024-05-09T17:37:54.408Z,101756.94
2024-05-09T17:40:27.839Z,101759.56
2024-05-09T17:42:59.714Z,101758.63
2024-05-09T17:45:26.302Z,101749.59
2024-05-09T17:47:53.107Z,101753.97
2024-05-09T17:50:27.345Z,101746.94
2024-05-09T17:53:00.321Z,101747.16
2024-05-09T17:55:26.932Z,101748.53
2024-05-09T17:57:53.591Z,101752.78
2024-05-09T18:00:29.039Z,101750.25
2024-05-09T18:03:04.001Z,101756.34
2024-05-09T18:05:30.956Z,101750.47
2024-05-09T18:07:57.892Z,101746.41
2024-05-09T18:10:32.554Z,101756.72
2024-05-09T18:13:03.278Z,101752.31
2024-05-09T18:15:29.848Z,101758.34
2024-05-09T18:17:56.618Z,101762.19
2024-05-09T18:20:32.790Z,101760.66
2024-05-09T18:23:07.531Z,101761.38
2024-05-09T18:25:34.192Z,101748.69
2024-05-09T18:28:02.620Z,101766.25
2024-05-09T18:30:34.726Z,101751.78
2024-05-09T18:33:06.076Z,101761.34
2024-05-09T18:35:34.301Z,101755.69
2024-05-09T18:38:01.239Z,101757.22
2024-05-09T18:40:34.428Z,101753.50
2024-05-09T18:43:05.832Z,101761.78
2024-05-09T18:45:34.304Z,101763.63
2024-05-09T18:48:02.443Z,101765.13
2024-05-09T18:50:35.827Z,101765.06
2024-05-09T18:53:06.509Z,101767.03
2024-05-09T18:55:33.703Z,101774.38
2024-05-09T18:58:01.459Z,101764.69
2024-05-09T19:00:40.445Z,101767.13
2024-05-09T19:03:12.224Z,101769.75
2024-05-09T19:05:41.506Z,101770.66
2024-05-09T19:08:08.933Z,101773.09
2024-05-09T19:10:38.434Z,101779.53
2024-05-09T19:13:09.232Z,101781.31
2024-05-09T19:15:39.455Z,101789.72
2024-05-09T19:18:06.938Z,101786.28
2024-05-09T19:20:35.588Z,101793.34
2024-05-09T19:23:03.665Z,101790.53
2024-05-09T19:25:30.369Z,101783.47
2024-05-09T19:27:57.017Z,101789.56
2024-05-09T19:30:30.530Z,101783.84
2024-05-09T19:33:05.538Z,101787.94
2024-05-09T19:35:32.389Z,101794.13
2024-05-09T19:37:59.107Z,101799.00
2024-05-09T19:40:31.272Z,101804.84
2024-05-09T19:43:00.060Z,101810.16
2024-05-09T19:45:26.639Z,101809.41
2024-05-09T19:47:53.303Z,101812.06
2024-05-09T19:50:26.990Z,101802.06
2024-05-09T19:53:02.173Z,101810.09
2024-05-09T19:55:28.832Z,101804.00
2024-05-09T19:57:55.456Z,101810.19
2024-05-09T20:00:29.147Z,101803.88
2024-05-09T20:03:01.783Z,101812.16
2024-05-09T20:05:30.746Z,101814.88
2024-05-09T20:07:57.617Z,101810.28
2024-05-09T20:10:29.791Z,101821.81
2024-05-09T20:12:59.321Z,101814.44
2024-05-09T20:15:25.891Z,101811.09
2024-05-09T20:17:52.531Z,101819.53
2024-05-09T20:20:28.347Z,101821.88
2024-05-09T20:23:02.815Z,101835.44
2024-05-09T20:25:29.438Z,101825.56
2024-05-09T20:27:55.947Z,101825.00
2024-05-09T20:30:28.987Z,101829.19
2024-05-09T20:32:59.418Z,101834.44
2024-05-09T20:35:26.613Z,101827.38
2024-05-09T20:37:53.157Z,101823.78
2024-05-09T20:40:28.239Z,101824.28
2024-05-09T20:42:59.217Z,101807.47
2024-05-09T20:45:25.869Z,101816.50
2024-05-09T20:47:52.537Z,101813.16
2024-05-09T20:50:28.095Z,101825.38
2024-05-09T20:53:02.611Z,101815.13
2024-05-09T20:55:29.823Z,101820.94
2024-05-09T20:57:56.627Z,101814.41
2024-05-09T21:00:30.076Z,101814.66
2024-05-09T21:03:05.126Z,101809.53
2024-05-09T21:05:31.973Z,101815.31
2024-05-09T21:07:58.723Z,101811.53
2024-05-09T21:12:52.887Z,101819.25
2024-05-09T21:15:19.387Z,101825.75
2024-05-09T21:17:46.047Z,101824.09
2024-05-09T21:20:17.288Z,101816.84
2024-05-09T21:22:47.210Z,101823.88
2024-05-09T21:25:14.157Z,101831.31
2024-05-09T21:27:40.883Z,101816.84
2024-05-09T21:30:12.954Z,101822.09
2024-05-09T21:32:44.922Z,101837.56
2024-05-09T21:35:11.453Z,101818.06
2024-05-09T21:37:37.947Z,101829.06
2024-05-09T21:40:09.563Z,101823.84
2024-05-09T21:42:40.161Z,101812.16
2024-05-09T21:45:06.931Z,101818.41
2024-05-09T21:47:37.084Z,101830.91
2024-05-09T21:50:06.099Z,101821.97
2024-05-09T21:52:34.158Z,101820.66
2024-05-09T21:55:00.832Z,101828.03
2024-05-09T21:57:27.329Z,101820.63
2024-05-09T21:59:53.854Z,101815.63
2024-05-09T22:02:20.432Z,101813.59
2024-05-09T22:04:47.181Z,101822.06
2024-05-09T22:07:13.874Z,101815.47
2024-05-09T22:09:45.332Z,101813.94
2024-05-09T22:12:12.281Z,101826.06
2024-05-09T22:14:38.949Z,101822.38
2024-05-09T22:17:05.541Z,101827.09
2024-05-09T22:19:32.214Z,101830.91
2024-05-09T22:21:58.811Z,101814.59
2024-05-09T22:24:25.333Z,101822.69
2024-05-09T22:26:53.539Z,101810.91
2024-05-09T22:29:20.027Z,101820.69
2024-05-09T22:31:46.565Z,101814.09
2024-05-09T22:34:13.274Z,101821.00
2024-05-09T22:36:39.933Z,101805.31
2024-05-09T22:39:06.639Z,101812.78
2024-05-09T22:41:33.201Z,101819.16
2024-05-09T22:44:01.809Z,101819.16
2024-05-09T22:46:28.388Z,101812.25
2024-05-09T22:48:55.140Z,101817.81
2024-05-09T22:51:21.803Z,101816.53
2024-05-09T22:53:48.332Z,101809.31
2024-05-09T22:56:15.106Z,101813.19
2024-05-09T22:58:41.625Z,101815.41
2024-05-09T23:01:14.555Z,101817.84
2024-05-09T23:03:41.253Z,101819.94
2024-05-09T23:06:08.269Z,101824.34
2024-05-09T23:08:34.772Z,101828.69
2024-05-09T23:11:01.496Z,101820.97
2024-05-09T23:13:28.119Z,101827.72
2024-05-09T23:15:54.685Z,101817.28
2024-05-09T23:18:21.348Z,101822.38
2024-05-09T23:20:48.009Z,101824.88
2024-05-09T23:23:14.485Z,101828.25
2024-05-09T23:25:41.534Z,101815.56
2024-05-09T23:28:08.609Z,101810.84
2024-05-09T23:30:38.958Z,101817.94
2024-05-09T23:33:10.735Z,101809.31
2024-05-09T23:35:37.733Z,101819.44
2024-05-09T23:38:04.975Z,101810.84
2024-05-09T23:40:38.495Z,101802.56
2024-05-09T23:43:09.077Z,101806.38
2024-05-09T23:45:36.067Z,101803.66
2024-05-09T23:48:03.442Z,101790.47
2024-05-09T23:50:35.839Z,101809.75
2024-05-09T23:53:06.311Z,101815.41
2024-05-09T23:55:33.754Z,101805.78
2024-05-09T23:58:00.655Z,101808.78
